Indian Creek, Iowa
Current Conditions -  °F | °C
As of 9:52 PM on Thursday 27 Nov 2014 (Local Time) from KCID Reporting Station
Overcast Overcast  
Wind Chill:   Ceiling: 6000
Heat Index: 11°   Visibility: 10mi
Dew Point:   Wind: 5mph
Humidity: 77%   Direction: 190°S
Pressure: 30.37"   Gusts: NA
Location:  42.0672°N, 91.5782°W
Report Text: KCID 280352Z 19004KT 10SM BKN060 OVC075 M12/M15 A3037 RMK AO2 SLP304 T11171150
Loading
Personal Weather Stations






























Interactive Weather Map New forecast layout! Learn more

10-Day Weather Forecast

Advertisements
Track Severe Weather on mobile